Pagrindinis puslapis
METAR-TAF:

METAR-TAF

Oro uostai :

Hiustonas, Teksasas, Jungtinės Amerikos Valstijos

platuma: 29-30-22N, ilguma: 095-28-37W, Aukštis: 21 m

Dabartinis oras

Ataskaita buvo paskelbta 25 minutes, ne 03:35 UTC
Ramus vėjas
Temperatūra 21°C
Drėgmė 94%
Slėgis 1014 hPa
Matomumas: 16.1 km
Giedras dangus

METAR: KAXH 170335Z AUTO 00000KT 10SM CLR 21/20 A2995 RMK AO2 LTG DSNT E AND SE T02060198

Laikas: 22:00 (04:00 UTC)


TAF: trūkstamas

Orai ataskaitas ir orų prognozės (METAR, TAF).

turimą stotys yra geltonos ir raudonos taškus žemėlapyje.

Perkelti pele per norėdami pamatyti stoties vardą.

Tada spustelėkite, norėdami matyti oro stebėjimo ir prognozės.

Norėdami pakeisti žemėlapį: spustelėkite ant žalios mygtukų su juodo kryžiaus žemyn,; žalią mygtuką su brūkšneliu, jei norite nutolinti; arba žalių rodyklių gretimoms žemėlapius.


METAR-TAF: